createdAt,value
2018-04-24T00:00:13.603Z,1.90
2018-04-24T00:01:13.567Z,2.00
2018-04-24T00:02:13.546Z,2.00
2018-04-24T00:03:13.531Z,2.10
2018-04-24T00:04:13.503Z,2.10
2018-04-24T00:05:13.476Z,2.00
2018-04-24T00:06:13.450Z,2.20
2018-04-24T00:07:13.429Z,1.90
2018-04-24T00:08:13.398Z,1.90
2018-04-24T00:09:13.369Z,2.30
2018-04-24T00:10:13.353Z,2.40
2018-04-24T00:11:13.329Z,1.90
2018-04-24T00:12:13.318Z,2.10
2018-04-24T00:13:13.274Z,2.20
2018-04-24T00:14:13.255Z,1.80
2018-04-24T00:15:13.225Z,1.80
2018-04-24T00:16:13.202Z,2.20
2018-04-24T00:17:13.171Z,2.30
2018-04-24T00:18:13.231Z,2.20
2018-04-24T00:19:13.129Z,2.30
2018-04-24T00:20:13.099Z,2.00
2018-04-24T00:21:13.080Z,2.00
2018-04-24T00:22:13.065Z,2.30
2018-04-24T00:23:13.021Z,2.10
2018-04-24T00:24:13.006Z,2.20
2018-04-24T00:25:12.975Z,2.30
2018-04-24T00:26:12.960Z,2.30
2018-04-24T00:27:12.928Z,2.30
2018-04-24T00:28:12.903Z,2.10
2018-04-24T00:29:12.873Z,2.40
2018-04-24T00:30:12.846Z,2.20
2018-04-24T00:31:12.838Z,2.10
2018-04-24T00:32:12.805Z,2.60
2018-04-24T00:33:12.770Z,2.00
2018-04-24T00:34:12.749Z,2.00
2018-04-24T00:35:12.732Z,2.30
2018-04-24T00:36:12.695Z,2.10
2018-04-24T00:37:12.709Z,2.10
2018-04-24T00:38:12.645Z,2.40
2018-04-24T00:39:12.634Z,2.60
2018-04-24T00:40:12.598Z,2.20
2018-04-24T00:41:12.571Z,2.20
2018-04-24T00:42:12.550Z,2.30
2018-04-24T00:43:12.531Z,2.10
2018-04-24T00:44:12.511Z,2.30
2018-04-24T00:45:12.470Z,2.50
2018-04-24T00:46:12.455Z,3.00
2018-04-24T00:47:12.506Z,2.30
2018-04-24T00:48:12.441Z,2.30
2018-04-24T00:49:12.376Z,2.40
2018-04-24T00:50:12.351Z,2.60
2018-04-24T00:51:12.335Z,2.70
2018-04-24T00:52:12.296Z,2.50
2018-04-24T00:53:12.273Z,2.60
2018-04-24T00:54:12.251Z,3.00
2018-04-24T00:55:12.223Z,2.60
2018-04-24T00:56:12.198Z,2.60
2018-04-24T00:57:12.174Z,2.70
2018-04-24T00:58:12.141Z,2.50
2018-04-24T00:59:12.125Z,3.10
2018-04-24T01:00:12.090Z,2.40
2018-04-24T01:01:12.073Z,2.30
2018-04-24T01:02:12.053Z,2.60
2018-04-24T01:03:12.024Z,3.00
2018-04-24T01:04:11.999Z,2.90
2018-04-24T01:05:11.964Z,2.70
2018-04-24T01:06:11.950Z,2.80
2018-04-24T01:07:11.926Z,3.00
2018-04-24T01:08:11.892Z,2.90
2018-04-24T01:09:11.870Z,2.40
2018-04-24T01:10:11.854Z,2.50
2018-04-24T01:11:11.822Z,2.20
2018-04-24T01:12:11.801Z,2.50
2018-04-24T01:13:11.769Z,2.40
2018-04-24T01:14:11.741Z,2.50
2018-04-24T01:15:11.723Z,2.90
2018-04-24T01:16:11.689Z,2.50
2018-04-24T01:17:11.670Z,2.50
2018-04-24T01:18:11.648Z,2.10
2018-04-24T01:19:11.610Z,2.60
2018-04-24T01:20:11.594Z,2.40
2018-04-24T01:21:11.561Z,2.50
2018-04-24T01:22:11.542Z,2.30
2018-04-24T01:23:11.517Z,1.90
2018-04-24T01:24:11.531Z,2.70
2018-04-24T01:25:11.471Z,2.50
2018-04-24T01:26:11.435Z,2.30
2018-04-24T01:27:11.408Z,2.60
2018-04-24T01:28:11.388Z,2.50
2018-04-24T01:29:11.367Z,2.20
2018-04-24T01:30:11.331Z,2.30
2018-04-24T01:31:11.314Z,2.50
2018-04-24T01:32:11.289Z,2.40
2018-04-24T01:33:11.256Z,2.30
2018-04-24T01:34:11.238Z,2.70
2018-04-24T01:35:11.210Z,2.60
2018-04-24T01:36:11.185Z,2.30
2018-04-24T01:37:11.155Z,2.40
2018-04-24T01:38:11.127Z,2.40
2018-04-24T01:39:11.105Z,2.70
2018-04-24T01:40:11.081Z,2.50
2018-04-24T01:41:11.057Z,2.70
2018-04-24T01:42:11.035Z,2.70
2018-04-24T01:43:11.006Z,2.50
2018-04-24T01:44:10.993Z,2.90
2018-04-24T01:45:10.951Z,2.30
2018-04-24T01:46:10.930Z,3.10
2018-04-24T01:47:10.907Z,2.50
2018-04-24T01:48:10.879Z,2.20
2018-04-24T01:49:10.846Z,2.00
2018-04-24T01:50:10.827Z,2.60
2018-04-24T01:51:10.801Z,2.60
2018-04-24T01:52:10.776Z,2.20
2018-04-24T01:53:10.752Z,2.00
2018-04-24T01:54:10.724Z,2.40
2018-04-24T01:55:10.692Z,2.70
2018-04-24T01:56:10.668Z,2.40
2018-04-24T01:57:10.696Z,2.40
2018-04-24T01:58:10.623Z,2.40
2018-04-24T01:59:10.595Z,2.70
2018-04-24T02:00:10.575Z,2.30
2018-04-24T02:01:10.537Z,2.50
2018-04-24T02:02:10.521Z,2.70
2018-04-24T02:03:10.495Z,2.60
2018-04-24T02:04:10.467Z,2.50
2018-04-24T02:05:10.441Z,2.70
2018-04-24T02:06:10.417Z,2.50
2018-04-24T02:07:10.386Z,3.00
2018-04-24T02:08:10.370Z,2.80
2018-04-24T02:09:10.351Z,3.00
2018-04-24T02:10:10.311Z,3.00
2018-04-24T02:11:10.285Z,2.70
2018-04-24T02:12:10.263Z,2.70
2018-04-24T02:13:10.229Z,2.80
2018-04-24T02:14:10.211Z,3.10
2018-04-24T02:15:10.181Z,3.10
2018-04-24T02:16:10.158Z,2.50
2018-04-24T02:17:10.128Z,3.20
2018-04-24T02:18:10.106Z,3.10
2018-04-24T02:19:10.078Z,3.10
2018-04-24T02:20:10.111Z,3.00
2018-04-24T02:21:10.025Z,2.90
2018-04-24T02:22:10.003Z,3.30
2018-04-24T02:23:09.973Z,3.20
2018-04-24T02:24:09.956Z,3.00
2018-04-24T02:25:09.919Z,3.10
2018-04-24T02:26:09.901Z,3.20
2018-04-24T02:27:09.869Z,2.80
2018-04-24T02:28:09.853Z,2.80
2018-04-24T02:29:09.820Z,3.20
2018-04-24T02:30:09.794Z,2.60
2018-04-24T02:31:09.788Z,3.10
2018-04-24T02:32:09.745Z,3.00
2018-04-24T02:33:09.722Z,2.90
2018-04-24T02:34:09.704Z,2.80
2018-04-24T02:35:09.664Z,2.80
2018-04-24T02:36:09.647Z,3.20
2018-04-24T02:37:09.613Z,2.70
2018-04-24T02:38:09.589Z,2.80
2018-04-24T02:39:09.563Z,2.60
2018-04-24T02:40:09.535Z,3.10
2018-04-24T02:41:09.516Z,2.80
2018-04-24T02:42:09.490Z,2.60
2018-04-24T02:43:09.459Z,2.50
2018-04-24T02:44:09.440Z,2.50
2018-04-24T02:45:09.403Z,2.50
2018-04-24T02:46:09.392Z,2.50
2018-04-24T02:47:09.359Z,2.60
2018-04-24T02:48:09.327Z,2.30
2018-04-24T02:49:09.307Z,2.50
2018-04-24T02:50:09.280Z,2.10
2018-04-24T02:51:09.252Z,2.50
2018-04-24T02:52:09.228Z,2.10
2018-04-24T02:53:09.210Z,1.90
2018-04-24T02:54:09.173Z,2.40
2018-04-24T02:55:09.146Z,2.30
2018-04-24T02:56:09.125Z,2.20
2018-04-24T02:57:09.097Z,2.00
2018-04-24T02:58:09.078Z,1.80
2018-04-24T02:59:09.046Z,2.40
2018-04-24T03:00:09.018Z,2.10
2018-04-24T03:01:08.992Z,2.40
2018-04-24T03:02:08.971Z,2.00
2018-04-24T03:03:08.937Z,2.20
2018-04-24T03:04:08.919Z,1.70
2018-04-24T03:05:08.885Z,2.10
2018-04-24T03:06:08.863Z,1.80
2018-04-24T03:07:08.833Z,1.90
2018-04-24T03:08:08.816Z,1.80
2018-04-24T03:09:08.783Z,1.60
2018-04-24T03:10:08.759Z,1.80
2018-04-24T03:11:08.726Z,1.70
2018-04-24T03:12:08.704Z,1.80
2018-04-24T03:13:08.675Z,1.80
2018-04-24T03:14:08.651Z,1.50
2018-04-24T03:15:08.621Z,1.80
2018-04-24T03:16:08.601Z,1.90
2018-04-24T03:17:08.574Z,1.60
2018-04-24T03:18:08.549Z,1.50
2018-04-24T03:19:08.517Z,1.50
2018-04-24T03:20:08.494Z,1.70
2018-04-24T03:21:08.464Z,1.40
2018-04-24T03:22:08.440Z,1.60
2018-04-24T03:23:08.415Z,1.70
2018-04-24T03:24:08.384Z,1.70
2018-04-24T03:25:08.364Z,1.90
2018-04-24T03:26:08.342Z,1.70
2018-04-24T03:27:08.316Z,1.60
2018-04-24T03:28:08.282Z,1.50
2018-04-24T03:29:08.256Z,1.40
2018-04-24T03:30:08.229Z,1.60
2018-04-24T03:31:08.206Z,1.50
2018-04-24T03:32:08.189Z,1.80
2018-04-24T03:33:08.152Z,1.40
2018-04-24T03:34:08.139Z,1.80
2018-04-24T03:35:08.130Z,1.50
2018-04-24T03:36:08.075Z,1.90
2018-04-24T03:37:08.048Z,1.50
2018-04-24T03:38:08.025Z,1.70
2018-04-24T03:39:07.993Z,1.60
2018-04-24T03:40:07.967Z,1.90
2018-04-24T03:41:07.940Z,1.50
2018-04-24T03:42:07.914Z,1.80
2018-04-24T03:43:07.885Z,1.30
2018-04-24T03:44:07.865Z,1.60
2018-04-24T03:45:07.843Z,1.50
2018-04-24T03:46:07.811Z,1.70
2018-04-24T03:47:07.786Z,1.60
2018-04-24T03:48:07.761Z,1.40
2018-04-24T03:49:07.731Z,1.80
2018-04-24T03:50:07.703Z,1.60
2018-04-24T03:51:07.685Z,1.80
2018-04-24T03:52:07.658Z,1.60
2018-04-24T03:53:07.633Z,1.70
2018-04-24T03:54:07.602Z,1.90
2018-04-24T03:55:07.572Z,1.90
2018-04-24T03:56:07.544Z,1.40
2018-04-24T03:57:07.571Z,1.60
2018-04-24T03:58:07.496Z,1.90
2018-04-24T03:59:07.478Z,1.60
2018-04-24T04:00:07.447Z,1.90
2018-04-24T04:01:07.412Z,2.40
2018-04-24T04:02:07.388Z,1.80
2018-04-24T04:03:07.365Z,1.60
2018-04-24T04:04:07.343Z,1.80
2018-04-24T04:05:07.308Z,1.80
2018-04-24T04:06:07.285Z,1.70
2018-04-24T04:07:07.273Z,2.30
2018-04-24T04:08:07.238Z,2.20
2018-04-24T04:09:07.209Z,1.80
2018-04-24T04:10:07.181Z,1.80
2018-04-24T04:11:07.158Z,1.90
2018-04-24T04:12:07.132Z,1.50
2018-04-24T04:13:07.153Z,1.50
2018-04-24T04:14:07.070Z,1.80
2018-04-24T04:15:07.044Z,1.70
2018-04-24T04:16:07.031Z,1.90
2018-04-24T04:17:06.999Z,2.00
2018-04-24T04:18:06.964Z,1.80
2018-04-24T04:19:06.944Z,1.50
2018-04-24T04:20:06.923Z,2.30
2018-04-24T04:21:06.885Z,1.90
2018-04-24T04:22:06.874Z,2.00
2018-04-24T04:23:06.835Z,2.20
2018-04-24T04:24:06.814Z,1.50
2018-04-24T04:25:06.788Z,1.70
2018-04-24T04:26:06.762Z,1.70
2018-04-24T04:27:06.736Z,1.80
2018-04-24T04:28:06.711Z,1.70
2018-04-24T04:29:06.686Z,2.10
2018-04-24T04:30:06.650Z,1.50
2018-04-24T04:31:06.645Z,1.90
2018-04-24T04:32:10.671Z,1.50
2018-04-24T04:33:07.587Z,1.50
2018-04-24T04:34:09.248Z,1.70
2018-04-24T04:35:06.525Z,2.00
2018-04-24T04:36:06.495Z,1.60
2018-04-24T04:37:06.478Z,1.90
2018-04-24T04:38:06.448Z,1.40
2018-04-24T04:39:06.419Z,2.10
2018-04-24T04:40:06.435Z,1.90
2018-04-24T04:41:06.367Z,1.90
2018-04-24T04:42:06.340Z,1.80
2018-04-24T04:43:06.336Z,1.90
2018-04-24T04:44:06.297Z,1.90
2018-04-24T04:45:06.263Z,2.00
2018-04-24T04:46:06.245Z,2.00
2018-04-24T04:47:06.229Z,1.90
2018-04-24T04:48:06.194Z,1.80
2018-04-24T04:49:06.171Z,5.10
2018-04-24T04:50:06.127Z,3.50
2018-04-24T04:51:06.240Z,13.20
2018-04-24T04:52:06.204Z,7.10
2018-04-24T04:53:06.176Z,6.30
2018-04-24T04:54:06.144Z,10.20
2018-04-24T04:55:06.115Z,13.70
2018-04-24T04:56:06.149Z,4.80
2018-04-24T04:57:06.038Z,4.80
2018-04-24T04:58:06.048Z,7.60
2018-04-24T04:59:05.902Z,6.30
2018-04-24T05:00:05.880Z,3.70
2018-04-24T05:01:05.850Z,9.40
2018-04-24T05:02:05.824Z,23.80
2018-04-24T05:03:05.815Z,9.60
2018-04-24T05:04:05.774Z,5.90
2018-04-24T05:05:05.742Z,6.90
2018-04-24T05:06:05.714Z,8.80
2018-04-24T05:07:05.690Z,10.50
2018-04-24T05:08:05.682Z,7.20
2018-04-24T05:09:05.639Z,6.20
2018-04-24T05:10:05.608Z,9.20
2018-04-24T05:11:05.591Z,4.30
2018-04-24T05:12:05.635Z,5.80
2018-04-24T05:13:05.536Z,12.20
2018-04-24T05:14:05.506Z,7.30
2018-04-24T05:15:05.484Z,14.90
2018-04-24T05:16:05.454Z,9.60
2018-04-24T05:17:05.426Z,12.10
2018-04-24T05:18:05.414Z,18.40
2018-04-24T05:19:05.374Z,9.50
2018-04-24T05:20:05.435Z,4.60
2018-04-24T05:21:05.328Z,4.40
2018-04-24T05:22:05.297Z,4.80
2018-04-24T05:23:05.275Z,14.90
2018-04-24T05:24:05.263Z,17.30
2018-04-24T05:25:05.378Z,12.90
2018-04-24T05:26:05.201Z,6.90
2018-04-24T05:27:05.259Z,8.60
2018-04-24T05:28:05.275Z,8.20
2018-04-24T05:29:05.229Z,5.80
2018-04-24T05:30:05.249Z,8.80
2018-04-24T05:31:05.125Z,7.70
2018-04-24T05:32:05.037Z,13.10
2018-04-24T05:33:05.018Z,5.70
2018-04-24T05:34:04.989Z,17.40
2018-04-24T05:35:04.962Z,9.50
2018-04-24T05:36:04.944Z,3.10
2018-04-24T05:37:04.909Z,8.60
2018-04-24T05:38:04.888Z,10.00
2018-04-24T05:39:04.858Z,5.50
2018-04-24T05:40:04.832Z,5.70
2018-04-24T05:41:04.811Z,5.20
2018-04-24T05:42:04.788Z,5.80
2018-04-24T05:43:04.756Z,12.00
2018-04-24T05:44:04.734Z,3.80
2018-04-24T05:45:04.754Z,2.50
2018-04-24T05:46:04.690Z,5.20
2018-04-24T05:47:04.652Z,4.20
2018-04-24T05:48:04.624Z,2.80
2018-04-24T05:49:04.606Z,7.80
2018-04-24T05:50:04.573Z,5.00
2018-04-24T05:51:04.555Z,9.40
2018-04-24T05:52:04.521Z,11.00
2018-04-24T05:53:04.525Z,5.30
2018-04-24T05:54:04.471Z,7.10
2018-04-24T05:55:04.445Z,5.30
2018-04-24T05:56:04.424Z,4.30
2018-04-24T05:57:04.405Z,4.50
2018-04-24T05:58:04.378Z,2.50
2018-04-24T05:59:04.337Z,8.20
2018-04-24T06:00:04.318Z,13.40
2018-04-24T06:01:04.296Z,8.80
2018-04-24T06:02:04.259Z,8.10
2018-04-24T06:03:04.419Z,8.40
2018-04-24T06:04:04.214Z,8.80
2018-04-24T06:05:04.194Z,5.20
2018-04-24T06:06:04.158Z,10.50
2018-04-24T06:07:04.135Z,4.20
2018-04-24T06:08:04.124Z,3.00
2018-04-24T06:09:04.082Z,7.40
2018-04-24T06:10:04.068Z,7.60
2018-04-24T06:11:04.029Z,4.30
2018-04-24T06:12:04.035Z,6.20
2018-04-24T06:13:03.982Z,3.90
2018-04-24T06:14:03.955Z,6.90
2018-04-24T06:15:04.020Z,4.90
2018-04-24T06:16:03.903Z,4.30
2018-04-24T06:17:03.891Z,9.10
2018-04-24T06:18:03.854Z,7.40
2018-04-24T06:19:03.825Z,9.30
2018-04-24T06:20:03.799Z,5.50
2018-04-24T06:21:03.781Z,6.30
2018-04-24T06:22:03.751Z,5.00
2018-04-24T06:23:03.724Z,5.10
2018-04-24T06:24:03.705Z,13.00
2018-04-24T06:25:03.677Z,4.10
2018-04-24T06:26:03.652Z,4.60
2018-04-24T06:27:03.619Z,8.70
2018-04-24T06:28:03.598Z,4.40
2018-04-24T06:29:03.569Z,9.10
2018-04-24T06:30:03.541Z,10.20
2018-04-24T06:31:03.567Z,3.20
2018-04-24T06:32:03.494Z,10.30
2018-04-24T06:33:03.477Z,6.00
2018-04-24T06:34:03.459Z,8.60
2018-04-24T06:35:03.413Z,10.80
2018-04-24T06:36:03.438Z,5.70
2018-04-24T06:37:03.362Z,11.60
2018-04-24T06:38:03.340Z,5.40
2018-04-24T06:39:03.317Z,9.10
2018-04-24T06:40:03.291Z,8.10
2018-04-24T06:41:03.264Z,5.40
2018-04-24T06:42:03.237Z,8.40
2018-04-24T06:43:04.149Z,8.50
2018-04-24T06:44:03.193Z,3.40
2018-04-24T06:45:03.398Z,5.70
2018-04-24T06:46:03.140Z,4.40
2018-04-24T06:47:03.104Z,5.70
2018-04-24T06:48:03.086Z,4.60
2018-04-24T06:49:03.056Z,6.20
2018-04-24T06:50:03.035Z,7.30
2018-04-24T06:51:03.007Z,4.70
2018-04-24T06:52:02.982Z,5.50
2018-04-24T06:53:02.954Z,4.90
2018-04-24T06:54:02.932Z,5.70
2018-04-24T06:55:02.949Z,6.00
2018-04-24T06:56:02.884Z,6.10
2018-04-24T06:57:02.976Z,2.80
2018-04-24T06:58:02.980Z,3.10
2018-04-24T06:59:02.969Z,3.20
2018-04-24T07:00:03.735Z,4.30
2018-04-24T07:01:02.889Z,4.30
2018-04-24T07:02:02.889Z,6.30
2018-04-24T07:03:02.894Z,5.70
2018-04-24T07:04:02.741Z,5.30
2018-04-24T07:05:02.650Z,3.50
2018-04-24T07:06:02.739Z,3.10
2018-04-24T07:07:02.593Z,3.70
2018-04-24T07:08:02.585Z,3.10
2018-04-24T07:09:02.550Z,3.30
2018-04-24T07:10:03.782Z,2.50
2018-04-24T07:11:02.500Z,3.10
2018-04-24T07:12:02.577Z,3.00
2018-04-24T07:13:02.452Z,2.20
2018-04-24T07:14:02.444Z,3.60
2018-04-24T07:15:02.403Z,4.80
2018-04-24T07:16:02.374Z,3.70
2018-04-24T07:17:02.345Z,3.20
2018-04-24T07:18:02.318Z,4.00
2018-04-24T07:19:02.353Z,3.20
2018-04-24T07:20:02.277Z,3.00
2018-04-24T07:21:02.248Z,2.90
2018-04-24T07:22:02.223Z,1.70
2018-04-24T07:23:02.444Z,4.90
2018-04-24T07:24:02.182Z,3.30
2018-04-24T07:25:02.147Z,2.90
2018-04-24T07:26:02.119Z,2.90
2018-04-24T07:27:02.345Z,2.50
2018-04-24T07:28:02.064Z,3.90
2018-04-24T07:29:02.044Z,2.50
2018-04-24T07:30:02.019Z,3.00
2018-04-24T07:31:01.987Z,2.60
2018-04-24T07:32:01.993Z,2.70
2018-04-24T07:33:02.152Z,2.70
2018-04-24T07:34:01.908Z,2.90
2018-04-24T07:35:01.908Z,3.20
2018-04-24T07:36:01.885Z,2.80
2018-04-24T07:37:01.840Z,2.20
2018-04-24T07:38:01.823Z,2.70
2018-04-24T07:39:01.785Z,3.20
2018-04-24T07:40:01.766Z,3.10
2018-04-24T07:41:01.786Z,4.20
2018-04-24T07:42:01.730Z,2.20
2018-04-24T07:43:01.693Z,2.70
2018-04-24T07:44:01.658Z,2.20
2018-04-24T07:45:01.646Z,2.70
2018-04-24T07:46:01.615Z,2.90
2018-04-24T07:47:01.583Z,2.80
2018-04-24T07:48:01.569Z,3.20
2018-04-24T07:49:01.703Z,2.80
2018-04-24T07:50:01.516Z,2.80
2018-04-24T07:51:01.643Z,2.40
2018-04-24T07:52:01.463Z,2.90
2018-04-24T07:53:01.450Z,2.30
2018-04-24T07:54:01.604Z,2.50
2018-04-24T07:55:01.561Z,2.80
2018-04-24T07:56:01.397Z,2.80
2018-04-24T07:57:01.414Z,2.50
2018-04-24T07:58:01.313Z,3.60
2018-04-24T07:59:01.293Z,2.80
2018-04-24T08:00:01.265Z,2.20
2018-04-24T08:01:01.230Z,2.80
2018-04-24T08:02:01.213Z,2.60
2018-04-24T08:03:01.180Z,2.30
2018-04-24T08:04:01.166Z,2.50
2018-04-24T08:05:01.135Z,2.80
2018-04-24T08:06:01.113Z,2.20
2018-04-24T08:07:01.098Z,2.50
2018-04-24T08:08:01.074Z,2.40
2018-04-24T08:09:01.030Z,2.70
2018-04-24T08:10:01.018Z,2.40
2018-04-24T08:11:00.995Z,2.10
2018-04-24T08:12:01.064Z,2.40
2018-04-24T08:13:00.930Z,2.20
2018-04-24T08:14:00.912Z,2.50
2018-04-24T08:15:00.887Z,2.70
2018-04-24T08:16:00.865Z,2.40
2018-04-24T08:17:00.833Z,2.40
2018-04-24T08:18:00.821Z,2.80
2018-04-24T08:19:00.785Z,2.80
2018-04-24T08:20:00.757Z,2.80
2018-04-24T08:21:00.742Z,2.80
2018-04-24T08:22:00.714Z,2.30
2018-04-24T08:23:00.681Z,3.10
2018-04-24T08:24:00.659Z,2.40
2018-04-24T08:25:00.632Z,2.80
2018-04-24T08:26:00.613Z,2.90
2018-04-24T08:27:00.591Z,2.50
2018-04-24T08:28:00.554Z,2.10
2018-04-24T08:29:00.533Z,2.50
2018-04-24T08:30:00.506Z,2.60
2018-04-24T08:31:00.486Z,2.40
2018-04-24T08:32:00.455Z,2.50
2018-04-24T08:33:00.601Z,2.50
2018-04-24T08:34:00.406Z,3.30
2018-04-24T08:35:00.379Z,3.00
2018-04-24T08:36:00.368Z,2.60
2018-04-24T08:37:00.343Z,2.50
2018-04-24T08:38:00.420Z,2.60
2018-04-24T08:39:00.339Z,3.00
2018-04-24T08:40:00.728Z,2.70
2018-04-24T08:41:00.231Z,2.60
2018-04-24T08:42:00.207Z,2.80
2018-04-24T08:43:00.357Z,2.70
2018-04-24T08:44:00.172Z,2.90
2018-04-24T08:45:00.135Z,2.80
2018-04-24T08:46:00.363Z,2.50
2018-04-24T08:47:00.078Z,3.00
2018-04-24T08:48:00.089Z,2.80
2018-04-24T08:49:00.031Z,2.40
2018-04-24T08:50:00.111Z,2.70
2018-04-24T08:51:00.726Z,2.60
2018-04-24T08:51:59.961Z,3.00
2018-04-24T08:53:00.082Z,2.90
2018-04-24T08:53:59.929Z,3.00
2018-04-24T08:54:59.886Z,2.70
2018-04-24T08:56:01.132Z,3.20
2018-04-24T08:56:59.829Z,2.50
2018-04-24T08:57:59.802Z,2.90
2018-04-24T08:58:59.793Z,2.70
2018-04-24T08:59:59.754Z,2.70
2018-04-24T09:00:59.731Z,2.80
2018-04-24T09:01:59.724Z,2.40
2018-04-24T09:02:59.692Z,3.10
2018-04-24T09:03:59.661Z,2.70
2018-04-24T09:04:59.753Z,2.70
2018-04-24T09:05:59.606Z,2.70
2018-04-24T09:06:59.588Z,2.90
2018-04-24T09:07:59.560Z,3.50
2018-04-24T09:08:59.530Z,3.10
2018-04-24T09:09:59.510Z,2.90
2018-04-24T09:10:59.483Z,10.40
2018-04-24T09:11:59.471Z,21.30
2018-04-24T09:12:59.431Z,12.00
2018-04-24T09:13:59.471Z,7.10
2018-04-24T09:14:59.462Z,13.70
2018-04-24T09:15:59.361Z,5.80
2018-04-24T09:16:59.335Z,12.20
2018-04-24T09:17:59.327Z,27.00
2018-04-24T09:18:59.288Z,7.00
2018-04-24T09:19:59.283Z,6.20
2018-04-24T09:20:59.239Z,5.40
2018-04-24T09:21:59.214Z,5.90
2018-04-24T09:22:59.195Z,3.60
2018-04-24T09:23:59.164Z,6.80
2018-04-24T09:24:59.144Z,4.10
2018-04-24T09:25:59.123Z,6.90
2018-04-24T09:26:59.170Z,22.60
2018-04-24T09:27:59.072Z,28.90
2018-04-24T09:28:59.045Z,8.70
2018-04-24T09:29:59.017Z,10.10
2018-04-24T09:30:59.001Z,8.80
2018-04-24T09:31:58.971Z,28.30
2018-04-24T09:32:58.944Z,15.60
2018-04-24T09:33:58.920Z,5.90
2018-04-24T09:34:58.911Z,33.00
2018-04-24T09:35:59.017Z,7.70
2018-04-24T09:36:58.855Z,10.90
2018-04-24T09:37:58.825Z,7.70
2018-04-24T09:38:58.798Z,5.90
2018-04-24T09:39:58.772Z,7.50
2018-04-24T09:40:58.754Z,19.80
2018-04-24T09:41:58.729Z,34.70
2018-04-24T09:42:58.703Z,24.00
2018-04-24T09:43:58.890Z,12.90
2018-04-24T09:44:58.806Z,15.80
2018-04-24T09:45:58.808Z,10.70
2018-04-24T09:46:58.766Z,9.40
2018-04-24T09:47:58.791Z,6.90
2018-04-24T09:48:58.777Z,5.50
2018-04-24T09:49:58.678Z,4.10
2018-04-24T09:50:58.688Z,3.50
2018-04-24T09:51:58.607Z,4.20
2018-04-24T09:52:58.603Z,3.80
2018-04-24T09:53:58.534Z,3.50
2018-04-24T09:54:58.561Z,3.00
2018-04-24T09:55:58.518Z,3.10
2018-04-24T09:56:58.500Z,2.80
2018-04-24T09:57:58.419Z,2.70
2018-04-24T09:58:58.457Z,2.70
2018-04-24T09:59:58.293Z,3.10
2018-04-24T10:00:58.279Z,3.00
2018-04-24T10:01:58.247Z,3.00
2018-04-24T10:02:58.223Z,2.80
2018-04-24T10:03:58.198Z,2.70
2018-04-24T10:04:58.172Z,2.40
2018-04-24T10:05:58.151Z,2.80
2018-04-24T10:06:58.134Z,2.60
2018-04-24T10:07:58.102Z,2.60
2018-04-24T10:08:58.076Z,2.50
2018-04-24T10:09:58.060Z,2.50
2018-04-24T10:10:58.030Z,3.10
2018-04-24T10:11:58.005Z,2.70
2018-04-24T10:12:57.981Z,2.80
2018-04-24T10:13:57.960Z,2.50
2018-04-24T10:14:57.933Z,2.50
2018-04-24T10:15:58.046Z,2.40
2018-04-24T10:16:57.904Z,2.50
2018-04-24T10:17:57.866Z,2.80
2018-04-24T10:18:57.832Z,2.60
2018-04-24T10:19:57.827Z,2.50
2018-04-24T10:20:57.780Z,2.50
2018-04-24T10:21:57.767Z,2.90
2018-04-24T10:22:57.758Z,2.50
2018-04-24T10:23:57.717Z,2.80
2018-04-24T10:24:57.692Z,3.30
2018-04-24T10:25:57.665Z,2.50
2018-04-24T10:26:57.643Z,2.80
2018-04-24T10:27:57.616Z,2.90
2018-04-24T10:28:57.591Z,2.90
2018-04-24T10:29:57.571Z,2.90
2018-04-24T10:30:57.839Z,3.10
2018-04-24T10:31:57.849Z,2.60
2018-04-24T10:32:57.499Z,3.30
2018-04-24T10:33:57.496Z,3.50
2018-04-24T10:34:57.455Z,2.60
2018-04-24T10:35:57.425Z,3.10
2018-04-24T10:36:57.401Z,2.50
2018-04-24T10:37:57.371Z,2.80
2018-04-24T10:38:57.350Z,2.70
2018-04-24T10:39:57.334Z,3.10
2018-04-24T10:40:57.312Z,2.90
2018-04-24T10:41:57.282Z,2.90
2018-04-24T10:42:57.259Z,3.30
2018-04-24T10:43:57.258Z,2.80
2018-04-24T10:44:57.209Z,3.00
2018-04-24T10:45:57.180Z,3.00
2018-04-24T10:46:57.166Z,3.30
2018-04-24T10:47:57.137Z,3.00
2018-04-24T10:48:57.113Z,2.50
2018-04-24T10:49:57.089Z,3.40
2018-04-24T10:50:57.071Z,3.60
2018-04-24T10:51:57.039Z,3.80
2018-04-24T10:52:57.022Z,3.30
2018-04-24T10:53:56.993Z,4.50
2018-04-24T10:54:57.181Z,4.10
2018-04-24T10:55:57.028Z,3.30
2018-04-24T10:56:57.014Z,4.20
2018-04-24T10:57:56.897Z,3.60
2018-04-24T10:58:56.874Z,4.30
2018-04-24T10:59:56.849Z,4.10
2018-04-24T11:00:56.976Z,4.10
2018-04-24T11:01:56.804Z,3.90
2018-04-24T11:02:56.774Z,4.10
2018-04-24T11:03:56.751Z,4.10
2018-04-24T11:04:56.739Z,4.70
2018-04-24T11:05:56.713Z,3.80
2018-04-24T11:06:56.691Z,3.70
2018-04-24T11:07:56.664Z,4.10
2018-04-24T11:08:56.637Z,3.80
2018-04-24T11:09:56.606Z,4.90
2018-04-24T11:10:56.609Z,4.50
2018-04-24T11:11:56.589Z,4.50
2018-04-24T11:12:56.544Z,5.70
2018-04-24T11:13:56.512Z,4.50
2018-04-24T11:14:56.485Z,5.40
2018-04-24T11:15:56.469Z,4.30
2018-04-24T11:16:56.474Z,4.00
2018-04-24T11:17:56.419Z,4.60
2018-04-24T11:18:56.397Z,5.10
2018-04-24T11:19:56.439Z,12.80
2018-04-24T11:20:56.494Z,5.80
2018-04-24T11:21:56.459Z,4.70
2018-04-24T11:22:56.335Z,5.10
2018-04-24T11:23:56.365Z,4.90
2018-04-24T11:24:56.283Z,4.80
2018-04-24T11:25:56.245Z,4.70
2018-04-24T11:26:56.207Z,4.10
2018-04-24T11:27:56.383Z,4.30
2018-04-24T11:28:56.265Z,4.50
2018-04-24T11:29:56.750Z,4.90
2018-04-24T11:30:56.416Z,4.40
2018-04-24T11:31:56.089Z,4.70
2018-04-24T11:32:57.228Z,5.10
2018-04-24T11:33:56.052Z,4.60
2018-04-24T11:34:56.016Z,4.80
2018-04-24T11:35:55.994Z,4.10
2018-04-24T11:36:55.979Z,4.40
2018-04-24T11:37:55.951Z,4.30
2018-04-24T11:38:55.938Z,4.60
2018-04-24T11:39:56.119Z,4.80
2018-04-24T11:40:55.881Z,4.50
2018-04-24T11:41:55.852Z,4.80
2018-04-24T11:42:55.843Z,4.50
2018-04-24T11:43:55.944Z,4.00
2018-04-24T11:44:55.912Z,4.40
2018-04-24T11:45:55.767Z,4.00
2018-04-24T11:46:55.736Z,4.20
2018-04-24T11:47:55.709Z,4.10
2018-04-24T11:48:55.699Z,4.40
2018-04-24T11:49:55.676Z,4.10
2018-04-24T11:50:55.644Z,4.70
2018-04-24T11:51:55.620Z,4.50
2018-04-24T11:52:55.596Z,5.20
2018-04-24T11:53:55.581Z,5.30
2018-04-24T11:54:55.547Z,5.20
2018-04-24T11:55:55.530Z,5.50
2018-04-24T11:56:55.660Z,5.60
2018-04-24T11:57:55.481Z,4.80
2018-04-24T11:58:55.451Z,5.50
2018-04-24T11:59:55.434Z,5.60
2018-04-24T12:00:55.412Z,5.50
2018-04-24T12:01:55.386Z,5.40
2018-04-24T12:02:55.406Z,5.70
2018-04-24T12:03:55.340Z,5.40
2018-04-24T12:04:55.318Z,6.30
2018-04-24T12:05:55.310Z,6.50
2018-04-24T12:06:55.262Z,6.80
2018-04-24T12:07:55.240Z,6.40
2018-04-24T12:08:55.220Z,6.30
2018-04-24T12:09:55.259Z,5.80
2018-04-24T12:10:55.168Z,5.10
2018-04-24T12:11:55.161Z,5.70
2018-04-24T12:12:55.127Z,5.60
2018-04-24T12:13:55.096Z,5.10
2018-04-24T12:14:55.073Z,5.50
2018-04-24T12:15:55.067Z,5.80
2018-04-24T12:16:55.054Z,5.50
2018-04-24T12:17:55.011Z,5.70
2018-04-24T12:18:54.976Z,6.40
2018-04-24T12:19:54.954Z,5.60
2018-04-24T12:20:54.937Z,5.70
2018-04-24T12:21:54.907Z,5.70
2018-04-24T12:22:54.890Z,5.50
2018-04-24T12:23:54.865Z,5.30
2018-04-24T12:24:54.970Z,5.70
2018-04-24T12:25:54.816Z,5.50
2018-04-24T12:26:54.797Z,6.90
2018-04-24T12:27:54.772Z,6.70
2018-04-24T12:28:54.745Z,6.50
2018-04-24T12:29:54.724Z,6.90
2018-04-24T12:30:54.701Z,7.10
2018-04-24T12:31:54.697Z,6.40
2018-04-24T12:32:54.651Z,6.20
2018-04-24T12:33:54.632Z,6.50
2018-04-24T12:34:54.617Z,6.70
2018-04-24T12:35:54.582Z,6.10
2018-04-24T12:36:54.558Z,6.70
2018-04-24T12:37:54.536Z,6.60
2018-04-24T12:38:54.590Z,6.20
2018-04-24T12:39:54.487Z,6.80
2018-04-24T12:40:54.460Z,6.10
2018-04-24T12:41:54.440Z,6.30
2018-04-24T12:42:54.414Z,5.80
2018-04-24T12:43:54.398Z,5.40
2018-04-24T12:44:54.382Z,5.00
2018-04-24T12:45:54.349Z,4.90
2018-04-24T12:46:54.336Z,4.80
2018-04-24T12:47:54.304Z,4.80
2018-04-24T12:48:54.271Z,4.20
2018-04-24T12:49:54.259Z,4.80
2018-04-24T12:50:54.222Z,4.60
2018-04-24T12:51:54.264Z,4.30
2018-04-24T12:52:54.181Z,4.10
2018-04-24T12:53:54.157Z,4.30
2018-04-24T12:54:54.129Z,4.30
2018-04-24T12:55:54.107Z,3.80
2018-04-24T12:56:54.088Z,4.10
2018-04-24T12:57:54.071Z,3.90
2018-04-24T12:58:54.034Z,4.10
2018-04-24T12:59:54.016Z,4.60
2018-04-24T13:00:53.983Z,4.10
2018-04-24T13:01:53.963Z,4.40
2018-04-24T13:02:53.943Z,4.50
2018-04-24T13:03:53.986Z,3.90
2018-04-24T13:04:53.900Z,4.90
2018-04-24T13:05:53.870Z,4.70
2018-04-24T13:06:53.850Z,4.40
2018-04-24T13:07:53.825Z,5.00
2018-04-24T13:08:53.798Z,5.10
2018-04-24T13:09:53.803Z,4.90
2018-04-24T13:10:53.819Z,5.00
2018-04-24T13:11:53.729Z,4.80
2018-04-24T13:12:53.724Z,4.90
2018-04-24T13:13:53.688Z,4.40
2018-04-24T13:14:53.656Z,5.00
2018-04-24T13:15:53.631Z,4.60
2018-04-24T13:16:53.610Z,4.10